createdAt,value
2022-12-10T00:01:41.676Z,49.17
2022-12-10T00:04:08.241Z,48.53
2022-12-10T00:06:36.775Z,41.03
2022-12-10T00:09:05.825Z,43.17
2022-12-10T00:11:32.579Z,45.50
2022-12-10T00:14:02.776Z,43.37
2022-12-10T00:16:29.899Z,42.57
2022-12-10T00:18:59.099Z,45.17
2022-12-10T00:21:28.605Z,41.67
2022-12-10T00:23:56.274Z,38.70
2022-12-10T00:26:25.389Z,41.10
2022-12-10T00:28:53.009Z,40.70
2022-12-10T00:31:22.772Z,42.00
2022-12-10T00:33:49.726Z,41.13
2022-12-10T00:36:19.679Z,38.37
2022-12-10T00:38:47.364Z,39.03
2022-12-10T00:41:14.636Z,36.73
2022-12-10T00:43:41.955Z,40.27
2022-12-10T00:46:09.722Z,39.83
2022-12-10T00:48:36.850Z,40.20
2022-12-10T00:51:06.334Z,38.40
2022-12-10T00:53:34.577Z,41.47
2022-12-10T00:56:01.461Z,42.23
2022-12-10T00:58:29.889Z,36.87
2022-12-10T01:01:13.111Z,34.10
2022-12-10T01:03:40.172Z,37.13
2022-12-10T01:06:16.713Z,39.43
2022-12-10T01:08:44.728Z,38.27
2022-12-10T01:11:13.564Z,38.80
2022-12-10T01:13:40.236Z,35.40
2022-12-10T01:16:09.004Z,33.83
2022-12-10T01:18:36.477Z,37.70
2022-12-10T01:21:10.928Z,38.43
2022-12-10T01:23:39.684Z,37.43
2022-12-10T01:26:09.193Z,35.87
2022-12-10T01:28:38.931Z,37.27
2022-12-10T01:31:12.423Z,38.43
2022-12-10T01:33:40.421Z,34.43
2022-12-10T01:36:15.602Z,34.50
2022-12-10T01:38:42.823Z,35.57
2022-12-10T01:41:15.473Z,34.53
2022-12-10T01:44:08.304Z,31.43
2022-12-10T01:46:36.469Z,34.30
2022-12-10T01:49:06.000Z,28.83
2022-12-10T01:51:35.664Z,28.97
2022-12-10T01:54:03.969Z,31.73
2022-12-10T01:56:34.463Z,31.93
2022-12-10T01:59:00.965Z,29.27
2022-12-10T02:01:46.602Z,29.17
2022-12-10T02:04:39.081Z,26.87
2022-12-10T02:07:21.569Z,30.63
2022-12-10T02:09:53.273Z,28.43
2022-12-10T02:12:35.673Z,26.80
2022-12-10T02:15:08.259Z,26.53
2022-12-10T02:17:55.188Z,28.10
2022-12-10T02:20:33.539Z,28.17
2022-12-10T02:23:07.924Z,28.03
2022-12-10T02:25:44.942Z,27.80
2022-12-10T02:28:27.042Z,30.37
2022-12-10T02:30:54.530Z,29.10
2022-12-10T02:33:23.868Z,24.73
2022-12-10T02:35:52.195Z,26.67
2022-12-10T02:38:25.732Z,27.40
2022-12-10T02:40:58.579Z,23.57
2022-12-10T02:43:27.583Z,28.13
2022-12-10T02:45:56.221Z,24.60
2022-12-10T02:48:25.042Z,23.57
2022-12-10T02:50:51.731Z,27.77
2022-12-10T02:53:18.278Z,24.70
2022-12-10T02:56:16.276Z,26.73
2022-12-10T02:58:51.888Z,23.33
2022-12-10T03:01:58.471Z,23.13
2022-12-10T03:05:02.080Z,26.50
2022-12-10T03:07:56.421Z,21.53
2022-12-10T03:10:33.560Z,20.73
2022-12-10T03:13:03.581Z,24.37
2022-12-10T03:15:35.254Z,19.50
2022-12-10T03:18:07.116Z,20.43
2022-12-10T03:20:38.174Z,21.10
2022-12-10T03:23:08.671Z,20.90
2022-12-10T03:25:38.584Z,20.83
2022-12-10T03:28:05.885Z,18.80
2022-12-10T03:30:33.983Z,19.67
2022-12-10T03:33:02.108Z,19.83
2022-12-10T03:35:29.036Z,21.10
2022-12-10T03:37:56.252Z,17.03
2022-12-10T03:40:26.120Z,21.57
2022-12-10T03:42:52.772Z,19.63
2022-12-10T03:45:19.645Z,18.80
2022-12-10T03:47:46.351Z,17.87
2022-12-10T03:50:12.855Z,21.03
2022-12-10T03:52:39.652Z,16.37
2022-12-10T03:55:07.782Z,17.43
2022-12-10T03:57:35.259Z,17.80
2022-12-10T04:00:02.325Z,19.17
2022-12-10T04:02:29.512Z,17.20
2022-12-10T04:04:55.954Z,19.00
2022-12-10T04:07:22.543Z,17.90
2022-12-10T04:09:49.212Z,17.73
2022-12-10T04:12:15.652Z,20.60
2022-12-10T04:15:00.601Z,19.93
2022-12-10T04:17:27.099Z,17.43
2022-12-10T04:19:53.569Z,16.87
2022-12-10T04:22:40.975Z,16.37
2022-12-10T04:25:28.026Z,15.43
2022-12-10T04:27:54.482Z,15.23
2022-12-10T04:30:21.023Z,15.23
2022-12-10T04:32:47.551Z,13.77
2022-12-10T04:35:14.657Z,15.47
2022-12-10T04:37:41.392Z,15.50
2022-12-10T04:40:08.743Z,14.13
2022-12-10T04:42:35.480Z,16.67
2022-12-10T04:45:03.082Z,15.17
2022-12-10T04:47:29.556Z,14.40
2022-12-10T04:49:56.028Z,14.33
2022-12-10T04:52:22.528Z,14.73
2022-12-10T04:54:49.245Z,13.10
2022-12-10T04:57:15.824Z,29.40
2022-12-10T04:59:42.421Z,18.30
2022-12-10T05:02:09.003Z,15.50
2022-12-10T05:04:35.952Z,15.20
2022-12-10T05:07:02.627Z,14.73
2022-12-10T05:09:29.157Z,14.23
2022-12-10T05:11:55.655Z,15.63
2022-12-10T05:14:22.119Z,15.30
2022-12-10T05:16:51.752Z,14.37
2022-12-10T05:19:20.854Z,13.43
2022-12-10T05:22:06.218Z,13.80
2022-12-10T05:24:33.083Z,15.73
2022-12-10T05:26:59.658Z,14.63
2022-12-10T05:29:26.197Z,15.07
2022-12-10T05:31:52.791Z,46.03
2022-12-10T05:34:19.439Z,18.70
2022-12-10T05:36:45.977Z,16.63
2022-12-10T05:39:12.578Z,15.63
2022-12-10T05:41:40.334Z,13.60
2022-12-10T05:44:08.832Z,16.40
2022-12-10T05:46:36.527Z,16.10
2022-12-10T05:49:05.539Z,15.70
2022-12-10T05:51:34.471Z,15.47
2022-12-10T05:54:02.916Z,13.57
2022-12-10T05:56:29.881Z,14.67
2022-12-10T05:59:00.855Z,14.77
2022-12-10T06:01:30.285Z,17.07
2022-12-10T06:03:58.649Z,13.03
2022-12-10T06:06:28.871Z,15.93
2022-12-10T06:08:55.555Z,16.70
2022-12-10T06:11:22.882Z,13.57
2022-12-10T06:13:56.011Z,14.73
2022-12-10T06:16:24.119Z,16.90
2022-12-10T06:18:52.200Z,16.87
2022-12-10T06:21:19.900Z,15.00
2022-12-10T06:23:52.322Z,12.90
2022-12-10T06:26:25.621Z,14.33
2022-12-10T06:28:53.071Z,15.40
2022-12-10T06:31:19.796Z,13.10
2022-12-10T06:33:47.075Z,16.47
2022-12-10T06:36:16.408Z,13.87
2022-12-10T06:38:43.498Z,15.50
2022-12-10T06:41:13.984Z,13.23
2022-12-10T06:43:40.876Z,15.17
2022-12-10T06:46:14.473Z,14.10
2022-12-10T06:48:41.862Z,17.87
2022-12-10T06:51:09.118Z,15.03
2022-12-10T06:53:37.110Z,14.37
2022-12-10T06:56:04.785Z,17.07
2022-12-10T06:58:32.259Z,15.30
2022-12-10T07:01:23.238Z,15.13
2022-12-10T07:03:51.102Z,16.63
2022-12-10T07:06:18.634Z,15.93
2022-12-10T07:08:45.392Z,15.47
2022-12-10T07:11:14.526Z,16.80
2022-12-10T07:13:41.590Z,16.07
2022-12-10T07:16:26.898Z,19.47
2022-12-10T07:18:55.428Z,14.87
2022-12-10T07:21:27.820Z,15.93
2022-12-10T07:23:58.978Z,14.90
2022-12-10T07:26:26.703Z,14.43
2022-12-10T07:28:53.961Z,12.70
2022-12-10T07:31:22.667Z,14.60
2022-12-10T07:33:51.176Z,14.20
2022-12-10T07:36:18.012Z,13.47
2022-12-10T07:38:44.590Z,13.73
2022-12-10T07:41:13.026Z,15.00
2022-12-10T07:43:41.260Z,13.60
2022-12-10T07:46:18.459Z,14.60
2022-12-10T07:48:47.072Z,15.93
2022-12-10T07:51:14.223Z,14.57
2022-12-10T07:53:40.811Z,17.63
2022-12-10T07:56:07.618Z,15.00
2022-12-10T07:58:35.138Z,12.83
2022-12-10T08:01:11.309Z,11.40
2022-12-10T08:03:38.746Z,11.83
2022-12-10T08:06:11.536Z,14.37
2022-12-10T08:08:38.990Z,13.50
2022-12-10T08:11:07.175Z,14.70
2022-12-10T08:13:34.997Z,12.27
2022-12-10T08:16:15.183Z,14.80
2022-12-10T08:18:43.622Z,14.77
2022-12-10T08:21:16.130Z,12.90
2022-12-10T08:23:43.449Z,15.13
2022-12-10T08:26:15.274Z,13.90
2022-12-10T08:28:41.786Z,15.13
2022-12-10T08:31:10.734Z,20.80
2022-12-10T08:33:38.532Z,16.37
2022-12-10T08:36:07.443Z,15.10
2022-12-10T08:38:35.067Z,14.33
2022-12-10T08:41:10.601Z,19.03
2022-12-10T08:43:37.111Z,13.90
2022-12-10T08:46:03.869Z,13.93
2022-12-10T08:48:31.115Z,14.50
2022-12-10T08:50:57.679Z,15.00
2022-12-10T08:53:24.619Z,14.80
2022-12-10T08:55:52.312Z,13.77
2022-12-10T08:58:19.053Z,13.53
2022-12-10T09:00:45.850Z,18.33
2022-12-10T09:03:12.885Z,17.90
2022-12-10T09:05:39.827Z,17.50
2022-12-10T09:08:06.351Z,15.27
2022-12-10T09:10:32.961Z,15.87
2022-12-10T09:13:03.086Z,14.53
2022-12-10T09:15:30.182Z,14.53
2022-12-10T09:17:56.840Z,13.77
2022-12-10T09:20:23.622Z,11.93
2022-12-10T09:22:50.314Z,13.60
2022-12-10T09:25:17.970Z,13.57
2022-12-10T09:27:45.061Z,13.53
2022-12-10T09:30:12.508Z,11.50
2022-12-10T09:32:39.108Z,12.47
2022-12-10T09:35:06.654Z,11.13
2022-12-10T09:37:33.175Z,14.37
2022-12-10T09:39:59.729Z,12.63
2022-12-10T09:42:51.368Z,10.57
2022-12-10T09:45:36.576Z,12.40
2022-12-10T09:48:18.850Z,12.23
2022-12-10T09:50:54.607Z,12.50
2022-12-10T09:53:22.618Z,10.00
2022-12-10T09:55:50.686Z,11.50
2022-12-10T09:58:26.245Z,14.27
2022-12-10T10:01:02.284Z,10.57
2022-12-10T10:03:35.916Z,10.87
2022-12-10T10:06:09.417Z,9.50
2022-12-10T10:08:42.914Z,10.10
2022-12-10T10:11:19.690Z,9.17
2022-12-10T10:13:53.170Z,9.70
2022-12-10T10:16:25.608Z,14.00
2022-12-10T10:18:54.996Z,12.30
2022-12-10T10:21:26.421Z,10.80
2022-12-10T10:23:53.599Z,11.43
2022-12-10T10:26:28.732Z,8.50
2022-12-10T10:29:02.179Z,12.30
2022-12-10T10:31:33.074Z,11.43
2022-12-10T10:34:06.225Z,8.30
2022-12-10T10:36:37.894Z,12.27
2022-12-10T10:39:13.073Z,10.30
2022-12-10T10:41:43.963Z,10.33
2022-12-10T10:44:19.261Z,10.80
2022-12-10T10:46:49.605Z,12.53
2022-12-10T10:49:25.927Z,8.37
2022-12-10T10:51:58.962Z,10.03
2022-12-10T10:54:33.419Z,9.53
2022-12-10T10:57:04.830Z,11.27
2022-12-10T10:59:35.007Z,8.57
2022-12-10T11:02:14.007Z,11.77
2022-12-10T11:04:49.522Z,11.27
2022-12-10T11:07:35.623Z,11.23
2022-12-10T11:10:04.672Z,12.97
2022-12-10T11:12:39.621Z,12.67
2022-12-10T11:15:31.803Z,10.63
2022-12-10T11:17:58.896Z,14.40
2022-12-10T11:20:41.735Z,13.77
2022-12-10T11:23:13.901Z,10.53
2022-12-10T11:26:00.848Z,11.27
2022-12-10T11:28:46.708Z,11.70
2022-12-10T11:31:26.711Z,13.00
2022-12-10T11:34:05.688Z,12.60
2022-12-10T11:36:49.597Z,10.87
2022-12-10T11:39:26.209Z,11.37
2022-12-10T11:42:17.162Z,12.13
2022-12-10T11:45:04.529Z,27.80
2022-12-10T11:48:04.834Z,16.33
2022-12-10T11:50:59.234Z,11.10
2022-12-10T11:53:47.649Z,11.00
2022-12-10T11:56:32.217Z,11.43
2022-12-10T11:59:17.123Z,12.27
2022-12-10T12:01:46.635Z,15.70
2022-12-10T12:04:43.552Z,14.33
2022-12-10T12:07:26.726Z,10.30
2022-12-10T12:10:14.699Z,15.70
2022-12-10T12:12:55.543Z,13.30
2022-12-10T12:15:30.373Z,10.97
2022-12-10T12:18:23.576Z,13.27
2022-12-10T12:21:00.136Z,13.67
2022-12-10T12:23:38.232Z,13.10
2022-12-10T12:26:10.891Z,11.13
2022-12-10T12:28:43.205Z,13.07
2022-12-10T12:31:23.084Z,10.83
2022-12-10T12:34:14.310Z,27.47
2022-12-10T12:36:41.494Z,11.23
2022-12-10T12:39:47.081Z,8.63
2022-12-10T12:42:30.422Z,10.53
2022-12-10T12:45:10.084Z,11.37
2022-12-10T12:47:46.951Z,11.07
2022-12-10T12:50:28.554Z,11.93
2022-12-10T12:52:58.817Z,21.93
2022-12-10T12:55:51.705Z,12.70
2022-12-10T12:58:18.120Z,13.30
2022-12-10T13:00:49.261Z,11.07
2022-12-10T13:03:28.706Z,12.13
2022-12-10T13:05:55.647Z,12.23
2022-12-10T13:08:26.310Z,12.33
2022-12-10T13:10:54.900Z,13.17
2022-12-10T13:13:37.360Z,13.13
2022-12-10T13:16:47.842Z,11.27
2022-12-10T13:19:22.010Z,14.00
2022-12-10T13:21:57.449Z,11.33
2022-12-10T13:24:36.302Z,13.10
2022-12-10T13:27:18.109Z,12.63
2022-12-10T13:30:00.084Z,14.23
2022-12-10T13:32:32.805Z,11.50
2022-12-10T13:35:08.475Z,12.67
2022-12-10T13:37:58.709Z,12.57
2022-12-10T13:40:31.225Z,13.47
2022-12-10T13:43:38.444Z,15.37
2022-12-10T13:46:32.031Z,12.37
2022-12-10T13:49:05.285Z,14.70
2022-12-10T13:51:48.286Z,16.87
2022-12-10T13:54:23.743Z,12.53
2022-12-10T13:57:11.729Z,16.37
2022-12-10T14:00:01.369Z,12.73
2022-12-10T14:02:51.056Z,14.30
2022-12-10T14:05:26.833Z,13.97
2022-12-10T14:07:57.320Z,14.23
2022-12-10T14:10:29.255Z,13.07
2022-12-10T14:12:56.171Z,13.87
2022-12-10T14:15:27.636Z,14.07
2022-12-10T14:18:16.626Z,14.03
2022-12-10T14:20:47.764Z,13.73
2022-12-10T14:23:35.124Z,15.30
2022-12-10T14:26:13.314Z,18.30
2022-12-10T14:29:03.678Z,16.50
2022-12-10T14:31:30.565Z,14.10
2022-12-10T14:34:02.986Z,12.63
2022-12-10T14:36:33.461Z,15.67
2022-12-10T14:39:03.584Z,14.50
2022-12-10T14:41:39.080Z,17.93
2022-12-10T14:44:20.168Z,16.13
2022-12-10T14:46:50.853Z,12.67
2022-12-10T14:49:33.780Z,11.97
2022-12-10T14:52:01.343Z,14.23
2022-12-10T14:54:32.577Z,14.27
2022-12-10T14:57:13.329Z,14.23
2022-12-10T15:00:01.164Z,13.60
2022-12-10T15:02:39.595Z,68.60
2022-12-10T15:05:23.829Z,23.47
2022-12-10T15:08:14.295Z,18.43
2022-12-10T15:10:54.129Z,12.70
2022-12-10T15:13:43.182Z,15.83
2022-12-10T15:16:45.358Z,16.97
2022-12-10T15:19:28.635Z,16.03
2022-12-10T15:22:17.217Z,18.13
2022-12-10T15:24:46.946Z,15.50
2022-12-10T15:27:21.326Z,17.67
2022-12-10T15:29:48.601Z,14.60
2022-12-10T15:32:29.928Z,17.00
2022-12-10T15:35:02.253Z,15.17
2022-12-10T15:37:35.064Z,17.10
2022-12-10T15:40:22.805Z,17.87
2022-12-10T15:42:49.463Z,18.93
2022-12-10T15:45:28.777Z,16.00
2022-12-10T15:47:59.433Z,22.57
2022-12-10T15:50:26.964Z,16.80
2022-12-10T15:52:54.271Z,18.70
2022-12-10T15:55:20.923Z,18.83
2022-12-10T15:57:50.106Z,38.23
2022-12-10T16:00:21.475Z,36.20
2022-12-10T16:02:55.465Z,20.23
2022-12-10T16:05:34.131Z,22.07
2022-12-10T16:08:21.019Z,16.67
2022-12-10T16:10:52.407Z,19.17
2022-12-10T16:13:21.982Z,15.23
2022-12-10T16:16:21.256Z,16.00
2022-12-10T16:18:48.027Z,18.47
2022-12-10T16:21:14.677Z,18.67
2022-12-10T16:23:41.485Z,15.33
2022-12-10T16:26:22.082Z,17.37
2022-12-10T16:28:50.250Z,28.77
2022-12-10T16:31:19.959Z,18.73
2022-12-10T16:33:48.111Z,18.10
2022-12-10T16:36:14.666Z,17.30
2022-12-10T16:38:41.749Z,18.57
2022-12-10T16:41:16.713Z,19.10
2022-12-10T16:43:43.293Z,17.43
2022-12-10T16:46:13.137Z,17.50
2022-12-10T16:48:40.283Z,15.70
2022-12-10T16:51:17.045Z,16.83
2022-12-10T16:53:43.788Z,20.37
2022-12-10T16:56:16.399Z,19.83
2022-12-10T16:58:44.206Z,19.77
2022-12-10T17:01:18.273Z,18.57
2022-12-10T17:03:44.822Z,18.87
2022-12-10T17:06:14.053Z,24.77
2022-12-10T17:08:42.911Z,21.20
2022-12-10T17:11:47.417Z,20.53
2022-12-10T17:14:30.855Z,18.27
2022-12-10T17:17:01.319Z,19.87
2022-12-10T17:19:30.275Z,20.03
2022-12-10T17:21:57.601Z,22.80
2022-12-10T17:24:31.893Z,20.47
2022-12-10T17:27:06.699Z,22.13
2022-12-10T17:29:38.591Z,21.63
2022-12-10T17:32:07.062Z,19.60
2022-12-10T17:34:33.970Z,19.40
2022-12-10T17:37:00.540Z,21.20
2022-12-10T17:39:29.551Z,17.23
2022-12-10T17:41:58.725Z,19.93
2022-12-10T17:44:26.844Z,21.63
2022-12-10T17:46:55.804Z,23.37
2022-12-10T17:49:22.557Z,22.33
2022-12-10T17:51:49.580Z,22.27
2022-12-10T17:54:16.100Z,20.83
2022-12-10T17:56:47.431Z,20.87
2022-12-10T17:59:15.728Z,21.57
2022-12-10T18:01:48.108Z,20.77
2022-12-10T18:04:19.420Z,22.70
2022-12-10T18:06:51.350Z,22.57
2022-12-10T18:09:17.862Z,18.60
2022-12-10T18:11:46.377Z,22.80
2022-12-10T18:14:15.536Z,23.03
2022-12-10T18:16:42.689Z,22.83
2022-12-10T18:19:15.456Z,21.03
2022-12-10T18:21:42.622Z,24.33
2022-12-10T18:24:09.183Z,23.67
2022-12-10T18:26:36.177Z,21.30
2022-12-10T18:29:04.062Z,20.10
2022-12-10T18:31:36.466Z,20.70
2022-12-10T18:34:09.629Z,19.67
2022-12-10T18:36:38.808Z,19.07
2022-12-10T18:39:15.312Z,20.20
2022-12-10T18:41:41.973Z,18.77
2022-12-10T18:44:15.276Z,19.77
2022-12-10T18:46:45.293Z,17.30
2022-12-10T18:49:14.285Z,20.27
2022-12-10T18:51:41.015Z,20.83
2022-12-10T18:54:08.472Z,20.93
2022-12-10T18:56:36.529Z,19.97
2022-12-10T18:59:07.275Z,17.53
2022-12-10T19:01:38.634Z,29.17
2022-12-10T19:04:06.106Z,26.40
2022-12-10T19:06:35.064Z,21.97
2022-12-10T19:09:18.125Z,22.77
2022-12-10T19:11:51.967Z,21.37
2022-12-10T19:14:22.345Z,21.23
2022-12-10T19:16:50.328Z,21.10
2022-12-10T19:19:18.520Z,20.57
2022-12-10T19:21:46.939Z,22.37
2022-12-10T19:24:14.711Z,20.53
2022-12-10T19:26:45.285Z,20.47
2022-12-10T19:29:17.163Z,20.03
2022-12-10T19:31:46.443Z,21.63
2022-12-10T19:34:14.463Z,20.37
2022-12-10T19:36:46.339Z,17.20
2022-12-10T19:39:18.869Z,17.57
2022-12-10T19:41:46.580Z,17.40
2022-12-10T19:44:14.455Z,18.00
2022-12-10T19:46:41.409Z,23.37
2022-12-10T19:49:16.607Z,16.57
2022-12-10T19:51:45.060Z,18.33
2022-12-10T19:54:16.131Z,19.77
2022-12-10T19:56:43.325Z,17.60
2022-12-10T19:59:19.329Z,17.90
2022-12-10T20:01:47.285Z,16.17
2022-12-10T20:04:18.510Z,13.50
2022-12-10T20:06:47.882Z,16.23
2022-12-10T20:09:31.228Z,17.40
2022-12-10T20:11:59.265Z,18.47
2022-12-10T20:14:26.025Z,17.47
2022-12-10T20:16:53.193Z,18.80
2022-12-10T20:19:23.372Z,18.33
2022-12-10T20:21:52.184Z,14.33
2022-12-10T20:24:19.231Z,15.80
2022-12-10T20:26:48.244Z,17.27
2022-12-10T20:29:33.411Z,19.43
2022-12-10T20:32:02.242Z,15.33
2022-12-10T20:34:28.857Z,15.00
2022-12-10T20:36:55.533Z,16.17
2022-12-10T20:39:28.226Z,15.53
2022-12-10T20:41:55.391Z,15.67
2022-12-10T20:44:23.174Z,18.33
2022-12-10T20:46:50.988Z,17.70
2022-12-10T20:49:19.979Z,15.47
2022-12-10T20:51:46.858Z,17.30
2022-12-10T20:54:13.707Z,16.33
2022-12-10T20:56:40.222Z,74.03
2022-12-10T20:59:07.112Z,28.43
2022-12-10T21:01:33.847Z,18.40
2022-12-10T21:04:00.518Z,17.10
2022-12-10T21:06:29.266Z,17.47
2022-12-10T21:08:56.618Z,19.30
2022-12-10T21:11:23.212Z,17.90
2022-12-10T21:13:49.668Z,19.47
2022-12-10T21:16:19.986Z,15.40
2022-12-10T21:18:48.375Z,19.57
2022-12-10T21:21:15.569Z,18.40
2022-12-10T21:23:42.690Z,14.67
2022-12-10T21:26:09.619Z,18.53
2022-12-10T21:28:36.538Z,15.97
2022-12-10T21:31:03.248Z,16.87
2022-12-10T21:33:29.878Z,16.30
2022-12-10T21:35:56.584Z,17.37
2022-12-10T21:38:24.950Z,16.00
2022-12-10T21:40:51.680Z,14.47
2022-12-10T21:43:23.783Z,16.73
2022-12-10T21:45:52.443Z,13.37
2022-12-10T21:48:25.007Z,13.47
2022-12-10T21:51:02.274Z,14.87
2022-12-10T21:53:29.530Z,13.43
2022-12-10T21:55:56.205Z,16.27
2022-12-10T21:58:22.757Z,13.40
2022-12-10T22:00:58.672Z,15.90
2022-12-10T22:03:26.258Z,15.73
2022-12-10T22:05:53.351Z,16.63
2022-12-10T22:08:20.127Z,15.23
2022-12-10T22:10:50.064Z,13.87
2022-12-10T22:13:18.688Z,13.77
2022-12-10T22:15:46.734Z,29.30
2022-12-10T22:18:14.885Z,20.47
2022-12-10T22:20:42.221Z,14.37
2022-12-10T22:23:13.030Z,15.13
2022-12-10T22:25:43.640Z,14.73
2022-12-10T22:28:10.497Z,14.83
2022-12-10T22:30:40.568Z,15.23
2022-12-10T22:33:09.290Z,16.90
2022-12-10T22:35:37.688Z,16.83
2022-12-10T22:38:05.563Z,12.83
2022-12-10T22:40:32.667Z,15.23
2022-12-10T22:43:20.165Z,13.37
2022-12-10T22:45:46.070Z,16.33
2022-12-10T22:48:12.635Z,11.33
2022-12-10T22:50:39.400Z,11.73
2022-12-10T22:53:06.473Z,13.07
2022-12-10T22:55:33.022Z,11.23
2022-12-10T22:57:59.591Z,12.20
2022-12-10T23:00:26.113Z,11.07
2022-12-10T23:02:52.660Z,12.20
2022-12-10T23:05:19.232Z,11.37
2022-12-10T23:07:46.102Z,10.63
2022-12-10T23:10:12.826Z,10.97
2022-12-10T23:13:01.035Z,11.23
2022-12-10T23:15:28.015Z,12.03
2022-12-10T23:17:54.485Z,10.43
2022-12-10T23:20:21.297Z,10.23
2022-12-10T23:22:48.076Z,15.03
2022-12-10T23:25:15.176Z,11.33
2022-12-10T23:27:41.698Z,11.40
2022-12-10T23:30:09.218Z,11.67
2022-12-10T23:32:35.945Z,15.23
2022-12-10T23:35:03.007Z,12.23
2022-12-10T23:37:33.521Z,11.37
2022-12-10T23:40:00.204Z,9.50
2022-12-10T23:42:28.303Z,12.53
2022-12-10T23:44:55.766Z,14.13
2022-12-10T23:47:22.907Z,12.63
2022-12-10T23:49:49.779Z,12.37
2022-12-10T23:52:16.968Z,10.93
2022-12-10T23:54:44.036Z,10.27
2022-12-10T23:57:10.781Z,13.80
2022-12-10T23:59:37.302Z,11.73
